createdAt,value
2023-02-01T00:01:18.976Z,3.90
2023-02-01T00:03:24.380Z,3.90
2023-02-01T00:05:32.190Z,3.90
2023-02-01T00:07:37.173Z,3.90
2023-02-01T00:09:42.149Z,3.90
2023-02-01T00:11:47.444Z,3.90
2023-02-01T00:13:53.182Z,3.80
2023-02-01T00:15:58.192Z,3.80
2023-02-01T00:18:03.188Z,3.90
2023-02-01T00:20:13.655Z,3.90
2023-02-01T00:22:21.261Z,3.90
2023-02-01T00:24:26.295Z,3.90
2023-02-01T00:26:39.039Z,3.90
2023-02-01T00:28:44.365Z,3.90
2023-02-01T00:30:49.448Z,3.90
2023-02-01T00:32:54.454Z,3.80
2023-02-01T00:34:59.487Z,3.80
2023-02-01T00:37:04.454Z,3.90
2023-02-01T00:39:12.585Z,3.90
2023-02-01T00:41:20.738Z,3.90
2023-02-01T00:43:26.502Z,3.90
2023-02-01T00:45:31.464Z,3.90
2023-02-01T00:47:36.898Z,3.90
2023-02-01T00:49:41.934Z,3.90
2023-02-01T00:51:47.282Z,3.90
2023-02-01T00:53:52.546Z,3.90
2023-02-01T00:56:00.295Z,4.00
2023-02-01T00:58:07.409Z,4.00
2023-02-01T01:00:14.715Z,4.10
2023-02-01T01:02:19.827Z,4.20
2023-02-01T01:04:26.420Z,4.10
2023-02-01T01:06:34.375Z,4.10
2023-02-01T01:08:43.215Z,4.10
2023-02-01T01:10:48.207Z,4.10
2023-02-01T01:12:56.131Z,4.00
2023-02-01T01:15:01.101Z,4.10
2023-02-01T01:17:06.115Z,4.10
2023-02-01T01:19:11.140Z,4.10
2023-02-01T01:21:18.993Z,4.20
2023-02-01T01:23:23.998Z,4.20
2023-02-01T01:25:29.858Z,4.20
2023-02-01T01:27:34.833Z,4.20
2023-02-01T01:29:42.440Z,4.20
2023-02-01T01:31:47.469Z,4.20
2023-02-01T01:33:55.194Z,4.30
2023-02-01T01:36:01.050Z,4.30
2023-02-01T01:38:07.126Z,4.30
2023-02-01T01:40:15.323Z,4.20
2023-02-01T01:42:20.545Z,4.20
2023-02-01T01:45:13.387Z,4.20
2023-02-01T01:47:21.097Z,4.20
2023-02-01T01:49:29.550Z,4.10
2023-02-01T01:51:40.463Z,4.10
2023-02-01T01:53:55.002Z,4.10
2023-02-01T01:56:00.552Z,4.10
2023-02-01T01:58:09.970Z,4.20
2023-02-01T02:00:19.761Z,4.10
2023-02-01T02:02:28.377Z,4.20
2023-02-01T02:04:33.742Z,4.10
2023-02-01T02:06:49.277Z,4.20
2023-02-01T02:08:54.332Z,4.20
2023-02-01T02:11:05.624Z,4.10
2023-02-01T02:13:11.035Z,4.10
2023-02-01T02:15:18.777Z,4.00
2023-02-01T02:17:39.509Z,4.00
2023-02-01T02:20:44.341Z,4.10
2023-02-01T02:23:44.568Z,4.10
2023-02-01T02:26:38.346Z,4.10
2023-02-01T02:29:18.179Z,4.10
2023-02-01T02:31:45.227Z,4.10
2023-02-01T02:34:08.462Z,4.10
2023-02-01T02:36:21.614Z,4.10
2023-02-01T02:38:38.247Z,4.10
2023-02-01T02:40:53.282Z,4.20
2023-02-01T02:43:22.869Z,4.20
2023-02-01T02:45:49.330Z,4.20
2023-02-01T02:48:01.695Z,4.10
2023-02-01T02:50:31.565Z,4.10
2023-02-01T02:52:57.043Z,4.10
2023-02-01T02:55:05.095Z,4.00
2023-02-01T02:57:28.858Z,4.00
2023-02-01T02:59:49.052Z,3.90
2023-02-01T03:02:07.663Z,3.90
2023-02-01T03:04:18.452Z,4.10
2023-02-01T03:06:29.744Z,3.90
2023-02-01T03:08:35.324Z,4.00
2023-02-01T03:10:52.343Z,4.10
2023-02-01T03:13:02.104Z,4.20
2023-02-01T03:15:14.570Z,4.20
2023-02-01T03:17:31.992Z,4.10
2023-02-01T03:19:46.223Z,4.20
2023-02-01T03:21:57.674Z,4.10
2023-02-01T03:24:08.762Z,4.20
2023-02-01T03:26:19.232Z,4.30
2023-02-01T03:28:29.180Z,4.40
2023-02-01T03:30:39.536Z,4.40
2023-02-01T03:33:03.361Z,4.50
2023-02-01T03:35:12.594Z,4.50
2023-02-01T03:37:27.841Z,4.40
2023-02-01T03:39:39.765Z,4.50
2023-02-01T03:41:49.655Z,4.60
2023-02-01T03:44:00.053Z,4.50
2023-02-01T03:46:12.970Z,4.50
2023-02-01T03:48:21.763Z,4.50
2023-02-01T03:50:29.768Z,4.80
2023-02-01T03:52:43.994Z,4.60
2023-02-01T03:54:50.957Z,4.60
2023-02-01T03:57:01.265Z,4.60
2023-02-01T03:59:06.576Z,4.60
2023-02-01T04:01:14.159Z,4.50
2023-02-01T04:03:19.597Z,4.50
2023-02-01T04:05:26.333Z,4.40
2023-02-01T04:07:41.516Z,4.40
2023-02-01T04:09:46.785Z,4.40
2023-02-01T04:11:52.046Z,4.70
2023-02-01T04:13:57.061Z,4.80
2023-02-01T04:16:02.841Z,4.70
2023-02-01T04:18:08.374Z,4.60
2023-02-01T04:20:14.890Z,4.50
2023-02-01T04:22:20.295Z,4.70
2023-02-01T04:24:27.946Z,4.60
2023-02-01T04:26:33.685Z,4.60
2023-02-01T04:28:38.892Z,4.50
2023-02-01T04:30:44.036Z,4.50
2023-02-01T04:32:49.182Z,4.60
2023-02-01T04:34:54.761Z,4.50
2023-02-01T04:36:59.776Z,4.50
2023-02-01T04:39:07.348Z,4.50
2023-02-01T04:41:14.962Z,4.50
2023-02-01T04:43:20.950Z,4.60
2023-02-01T04:45:25.956Z,4.60
2023-02-01T04:47:31.184Z,4.60
2023-02-01T04:49:36.177Z,4.50
2023-02-01T04:51:42.214Z,4.50
2023-02-01T04:53:47.262Z,4.50
2023-02-01T04:55:53.580Z,4.50
2023-02-01T04:58:01.591Z,4.40
2023-02-01T05:00:12.099Z,4.50
2023-02-01T05:02:17.099Z,4.50
2023-02-01T05:04:22.287Z,4.60
2023-02-01T05:06:27.451Z,4.50
2023-02-01T05:08:32.430Z,4.50
2023-02-01T05:10:37.461Z,4.50
2023-02-01T05:12:54.938Z,4.60
2023-02-01T05:15:02.574Z,4.60
2023-02-01T05:17:07.637Z,4.50
2023-02-01T05:19:12.708Z,4.40
2023-02-01T05:21:18.072Z,4.40
2023-02-01T05:23:23.118Z,4.40
2023-02-01T05:25:28.750Z,4.50
2023-02-01T05:27:35.244Z,4.40
2023-02-01T05:29:40.877Z,4.40
2023-02-01T05:31:49.738Z,4.30
2023-02-01T05:33:54.982Z,4.40
2023-02-01T05:36:00.105Z,4.40
2023-02-01T05:38:05.100Z,4.30
2023-02-01T05:40:12.498Z,4.20
2023-02-01T05:42:17.674Z,4.20
2023-02-01T05:44:23.209Z,4.30
2023-02-01T05:46:28.665Z,4.30
2023-02-01T05:48:37.862Z,4.20
2023-02-01T05:50:43.775Z,4.20
2023-02-01T05:52:48.763Z,4.20
2023-02-01T05:54:54.578Z,4.30
2023-02-01T05:56:59.597Z,4.20
2023-02-01T05:59:04.990Z,4.30
2023-02-01T06:01:10.614Z,4.30
2023-02-01T06:03:15.977Z,4.20
2023-02-01T06:05:23.645Z,4.20
2023-02-01T06:07:29.812Z,4.10
2023-02-01T06:09:34.901Z,4.20
2023-02-01T06:11:41.783Z,4.30
2023-02-01T06:13:47.182Z,4.30
2023-02-01T06:15:52.357Z,4.30
2023-02-01T06:17:57.414Z,4.30
2023-02-01T06:20:03.149Z,4.20
2023-02-01T06:22:10.772Z,4.20
2023-02-01T06:24:16.110Z,4.30
2023-02-01T06:26:21.148Z,4.30
2023-02-01T06:28:27.564Z,4.40
2023-02-01T06:30:32.640Z,4.40
2023-02-01T06:32:38.118Z,4.50
2023-02-01T06:34:43.334Z,4.50
2023-02-01T06:36:48.412Z,4.40
2023-02-01T06:38:57.572Z,4.30
2023-02-01T06:41:03.674Z,4.40
2023-02-01T06:43:08.747Z,4.30
2023-02-01T06:45:14.792Z,4.40
2023-02-01T06:47:19.800Z,4.30
2023-02-01T06:49:26.124Z,4.30
2023-02-01T06:51:32.332Z,4.40
2023-02-01T06:53:37.870Z,4.30
2023-02-01T06:55:45.826Z,4.30
2023-02-01T06:57:50.612Z,4.40
2023-02-01T06:59:56.331Z,4.40
2023-02-01T07:02:01.508Z,4.30
2023-02-01T07:04:07.531Z,4.20
2023-02-01T07:06:13.803Z,4.20
2023-02-01T07:08:18.935Z,4.40
2023-02-01T07:10:24.296Z,4.30
2023-02-01T07:12:32.652Z,4.40
2023-02-01T07:14:37.696Z,4.40
2023-02-01T07:16:42.841Z,4.30
2023-02-01T07:18:50.597Z,4.20
2023-02-01T07:20:55.672Z,4.20
2023-02-01T07:23:01.040Z,4.20
2023-02-01T07:25:06.944Z,4.30
2023-02-01T07:27:14.212Z,4.40
2023-02-01T07:29:22.380Z,4.50
2023-02-01T07:31:30.010Z,4.50
2023-02-01T07:33:35.581Z,4.70
2023-02-01T07:35:40.893Z,4.70
2023-02-01T07:37:45.926Z,4.70
2023-02-01T07:39:51.296Z,4.70
2023-02-01T07:41:58.134Z,4.70
2023-02-01T07:44:03.153Z,4.70
2023-02-01T07:46:11.452Z,4.70
2023-02-01T07:48:16.482Z,4.80
2023-02-01T07:50:23.008Z,4.90
2023-02-01T07:52:31.160Z,5.00
2023-02-01T07:54:36.158Z,4.90
2023-02-01T07:56:41.160Z,4.80
2023-02-01T07:58:46.993Z,4.90
2023-02-01T08:01:04.562Z,4.80
2023-02-01T08:03:13.241Z,4.80
2023-02-01T08:05:18.736Z,4.70
2023-02-01T08:07:23.738Z,4.80
2023-02-01T08:09:28.968Z,4.80
2023-02-01T08:11:34.911Z,5.00
2023-02-01T08:13:40.195Z,5.00
2023-02-01T08:15:45.187Z,5.00
2023-02-01T08:17:51.578Z,4.90
2023-02-01T08:19:59.531Z,4.90
2023-02-01T08:22:08.135Z,5.00
2023-02-01T08:24:14.287Z,5.10
2023-02-01T08:26:23.179Z,5.00
2023-02-01T08:28:28.214Z,5.10
2023-02-01T08:30:33.553Z,5.10
2023-02-01T08:32:39.245Z,5.10
2023-02-01T08:34:44.702Z,5.10
2023-02-01T08:36:53.003Z,5.10
2023-02-01T08:38:58.199Z,5.20
2023-02-01T08:41:09.563Z,5.10
2023-02-01T08:43:15.367Z,5.10
2023-02-01T08:45:22.053Z,5.20
2023-02-01T08:47:28.097Z,5.10
2023-02-01T08:49:33.621Z,5.10
2023-02-01T08:51:38.650Z,5.10
2023-02-01T08:53:47.191Z,5.10
2023-02-01T08:55:52.325Z,5.10
2023-02-01T08:57:57.321Z,5.10
2023-02-01T09:02:10.004Z,5.00
2023-02-01T09:04:15.064Z,5.00
2023-02-01T09:06:20.395Z,4.90
2023-02-01T09:08:25.403Z,5.00
2023-02-01T09:10:35.495Z,5.00
2023-02-01T09:12:40.754Z,5.00
2023-02-01T09:14:46.521Z,5.00
2023-02-01T09:16:52.012Z,5.00
2023-02-01T09:19:23.895Z,5.00
2023-02-01T09:21:22.800Z,5.00
2023-02-01T09:23:27.825Z,5.00
2023-02-01T09:25:35.789Z,5.00
2023-02-01T09:27:40.984Z,5.10
2023-02-01T09:29:46.020Z,5.00
2023-02-01T09:32:02.879Z,5.00
2023-02-01T09:34:08.893Z,5.00
2023-02-01T09:36:16.836Z,5.10
2023-02-01T09:38:22.345Z,5.00
2023-02-01T09:40:27.801Z,5.00
2023-02-01T09:42:58.790Z,4.90
2023-02-01T09:45:21.267Z,4.90
2023-02-01T09:47:30.645Z,4.90
2023-02-01T09:49:44.390Z,4.90
2023-02-01T09:51:53.407Z,4.90
2023-02-01T09:54:06.576Z,4.90
2023-02-01T09:56:18.162Z,5.00
2023-02-01T09:58:33.998Z,5.00
2023-02-01T10:00:42.933Z,5.00
2023-02-01T10:02:48.799Z,5.00
2023-02-01T10:04:57.442Z,5.00
2023-02-01T10:07:21.470Z,5.00
2023-02-01T10:09:48.280Z,5.00
2023-02-01T10:12:19.405Z,4.90
2023-02-01T10:14:56.252Z,4.90
2023-02-01T10:17:11.861Z,4.90
2023-02-01T10:19:45.729Z,4.90
2023-02-01T10:22:00.139Z,5.00
2023-02-01T10:24:32.096Z,5.00
2023-02-01T10:26:40.751Z,5.00
2023-02-01T10:28:49.712Z,5.00
2023-02-01T10:31:01.504Z,5.00
2023-02-01T10:33:20.460Z,5.00
2023-02-01T10:35:32.272Z,5.00
2023-02-01T10:37:41.062Z,5.00
2023-02-01T10:39:46.008Z,5.00
2023-02-01T10:41:51.605Z,5.00
2023-02-01T10:44:00.823Z,5.00
2023-02-01T10:46:08.785Z,5.10
2023-02-01T10:48:14.248Z,5.10
2023-02-01T10:50:28.820Z,5.10
2023-02-01T10:52:45.130Z,5.10
2023-02-01T10:54:51.252Z,5.10
2023-02-01T10:56:56.140Z,5.20
2023-02-01T10:59:06.614Z,5.20
2023-02-01T11:01:20.065Z,5.20
2023-02-01T11:03:43.369Z,5.20
2023-02-01T11:05:49.489Z,5.20
2023-02-01T11:08:01.390Z,5.20
2023-02-01T11:10:07.713Z,5.20
2023-02-01T11:12:31.751Z,5.20
2023-02-01T11:14:43.249Z,5.20
2023-02-01T11:16:56.827Z,5.20
2023-02-01T11:19:02.853Z,5.20
2023-02-01T11:21:09.718Z,5.20
2023-02-01T11:23:20.148Z,5.30
2023-02-01T11:25:27.083Z,5.30
2023-02-01T11:27:33.403Z,5.30
2023-02-01T11:29:42.512Z,5.30
2023-02-01T11:31:49.712Z,5.20
2023-02-01T11:34:03.006Z,5.30
2023-02-01T11:36:12.687Z,5.20
2023-02-01T11:38:28.998Z,5.20
2023-02-01T11:40:41.257Z,5.20
2023-02-01T11:43:01.248Z,5.30
2023-02-01T11:45:24.663Z,5.30
2023-02-01T11:47:32.625Z,5.30
2023-02-01T11:49:40.267Z,5.30
2023-02-01T11:52:00.636Z,5.30
2023-02-01T11:54:21.457Z,5.30
2023-02-01T11:56:36.375Z,5.40
2023-02-01T11:59:16.331Z,5.30
2023-02-01T12:01:48.585Z,5.30
2023-02-01T12:04:25.567Z,5.30
2023-02-01T12:06:48.885Z,5.40
2023-02-01T12:09:23.827Z,5.40
2023-02-01T12:11:46.406Z,5.40
2023-02-01T12:13:59.840Z,5.40
2023-02-01T12:16:19.618Z,5.40
2023-02-01T12:18:54.668Z,5.30
2023-02-01T12:21:26.929Z,5.40
2023-02-01T12:24:02.095Z,5.40
2023-02-01T12:26:28.487Z,5.40
2023-02-01T12:29:24.439Z,5.40
2023-02-01T12:31:52.865Z,5.50
2023-02-01T12:34:35.347Z,5.50
2023-02-01T12:36:50.419Z,5.50
2023-02-01T12:39:14.221Z,5.50
2023-02-01T12:41:35.997Z,5.50
2023-02-01T12:43:46.347Z,5.50
2023-02-01T12:45:57.324Z,5.60
2023-02-01T12:48:25.953Z,5.50
2023-02-01T12:50:35.539Z,5.50
2023-02-01T12:52:47.899Z,5.50
2023-02-01T12:55:05.231Z,5.60
2023-02-01T12:57:17.940Z,5.50
2023-02-01T12:59:31.099Z,5.50
2023-02-01T13:01:47.480Z,5.60
2023-02-01T13:04:07.029Z,5.60
2023-02-01T13:06:19.545Z,5.60
2023-02-01T13:08:28.944Z,5.50
2023-02-01T13:10:42.141Z,5.60
2023-02-01T13:12:58.321Z,5.60
2023-02-01T13:15:08.761Z,5.60
2023-02-01T13:17:19.321Z,5.70
2023-02-01T13:19:31.881Z,5.70
2023-02-01T13:21:42.923Z,5.70
2023-02-01T13:23:51.636Z,5.70
2023-02-01T13:26:00.019Z,5.70
2023-02-01T13:28:10.653Z,5.70
2023-02-01T13:30:25.189Z,5.70
2023-02-01T13:33:54.545Z,5.70
2023-02-01T13:36:01.287Z,5.80
2023-02-01T13:38:32.205Z,5.80
2023-02-01T13:40:48.512Z,5.80
2023-02-01T13:42:59.028Z,5.80
2023-02-01T13:45:07.902Z,5.80
2023-02-01T13:47:26.599Z,5.80
2023-02-01T13:49:42.138Z,5.80
2023-02-01T13:51:52.090Z,5.80
2023-02-01T13:53:57.065Z,5.70
2023-02-01T13:56:09.145Z,5.70
2023-02-01T13:58:24.676Z,5.70
2023-02-01T14:00:36.084Z,5.70
2023-02-01T14:03:22.383Z,5.80
2023-02-01T14:06:00.753Z,5.80
2023-02-01T14:08:16.607Z,5.80
2023-02-01T14:10:57.008Z,5.80
2023-02-01T14:13:09.385Z,5.70
2023-02-01T14:15:40.951Z,5.80
2023-02-01T14:17:45.950Z,5.80
2023-02-01T14:19:52.300Z,5.80
2023-02-01T14:22:02.446Z,5.80
2023-02-01T14:24:21.567Z,5.80
2023-02-01T14:26:29.967Z,5.80
2023-02-01T14:28:35.297Z,5.80
2023-02-01T14:30:46.169Z,5.90
2023-02-01T14:32:53.999Z,5.80
2023-02-01T14:35:03.521Z,5.90
2023-02-01T14:37:10.816Z,5.80
2023-02-01T14:39:28.354Z,5.80
2023-02-01T14:41:37.241Z,5.90
2023-02-01T14:44:15.402Z,5.90
2023-02-01T14:46:44.089Z,5.90
2023-02-01T14:48:50.927Z,5.80
2023-02-01T14:50:56.608Z,5.90
2023-02-01T14:53:31.943Z,5.90
2023-02-01T14:55:43.698Z,5.90
2023-02-01T14:57:53.943Z,6.00
2023-02-01T15:00:11.154Z,5.90
2023-02-01T15:02:29.202Z,5.90
2023-02-01T15:04:46.663Z,5.90
2023-02-01T15:06:55.906Z,5.90
2023-02-01T15:09:06.864Z,5.90
2023-02-01T15:11:19.146Z,5.90
2023-02-01T15:13:27.850Z,5.90
2023-02-01T15:15:37.218Z,5.90
2023-02-01T15:17:45.038Z,6.00
2023-02-01T15:19:58.081Z,6.00
2023-02-01T15:22:04.228Z,6.00
2023-02-01T15:24:16.523Z,6.00
2023-02-01T15:26:31.857Z,6.00
2023-02-01T15:28:37.310Z,6.00
2023-02-01T15:30:43.232Z,6.00
2023-02-01T15:32:52.108Z,6.00
2023-02-01T15:34:57.009Z,5.90
2023-02-01T15:37:09.423Z,5.90
2023-02-01T15:39:33.618Z,6.10
2023-02-01T15:41:38.749Z,6.10
2023-02-01T15:43:47.555Z,6.00
2023-02-01T15:45:53.628Z,6.00
2023-02-01T15:48:04.584Z,6.00
2023-02-01T15:50:16.665Z,6.00
2023-02-01T15:52:39.203Z,6.00
2023-02-01T15:54:50.372Z,6.00
2023-02-01T15:56:57.987Z,6.00
2023-02-01T15:59:05.211Z,6.00
2023-02-01T16:01:14.813Z,6.00
2023-02-01T16:03:39.839Z,7.00
2023-02-01T16:05:47.293Z,6.50
2023-02-01T16:08:04.894Z,6.40
2023-02-01T16:10:29.071Z,6.10
2023-02-01T16:16:51.756Z,6.00
2023-02-01T16:18:59.830Z,5.90
2023-02-01T16:21:04.861Z,5.90
2023-02-01T16:23:11.372Z,5.90
2023-02-01T16:25:16.625Z,5.90
2023-02-01T16:27:23.294Z,5.80
2023-02-01T16:29:28.825Z,5.80
2023-02-01T16:31:36.678Z,5.80
2023-02-01T16:33:41.648Z,5.70
2023-02-01T16:35:49.194Z,5.80
2023-02-01T16:37:54.156Z,5.80
2023-02-01T16:39:59.076Z,5.70
2023-02-01T16:42:05.051Z,5.80
2023-02-01T16:44:10.463Z,5.70
2023-02-01T16:46:21.456Z,5.70
2023-02-01T16:48:30.532Z,5.70
2023-02-01T16:50:36.934Z,5.70
2023-02-01T16:52:44.600Z,5.70
2023-02-01T16:54:50.149Z,5.70
2023-02-01T16:56:55.349Z,5.70
2023-02-01T16:59:00.719Z,5.70
2023-02-01T17:01:05.617Z,5.70
2023-02-01T17:03:10.580Z,5.70
2023-02-01T17:05:15.996Z,5.70
2023-02-01T17:07:22.437Z,5.60
2023-02-01T17:09:30.471Z,5.70
2023-02-01T17:11:35.699Z,5.70
2023-02-01T17:13:41.977Z,5.70
2023-02-01T17:15:53.377Z,5.80
2023-02-01T17:18:00.675Z,5.70
2023-02-01T17:20:06.950Z,5.80
2023-02-01T17:22:12.548Z,5.80
2023-02-01T17:24:17.882Z,5.80
2023-02-01T17:26:25.486Z,5.70
2023-02-01T17:28:30.625Z,5.80
2023-02-01T17:30:36.849Z,5.80
2023-02-01T17:32:42.608Z,5.70
2023-02-01T17:34:48.831Z,5.80
2023-02-01T17:36:53.882Z,5.80
2023-02-01T17:39:05.752Z,5.80
2023-02-01T17:41:15.046Z,5.70
2023-02-01T17:43:27.256Z,5.70
2023-02-01T17:45:40.716Z,5.70
2023-02-01T17:47:47.060Z,5.70
2023-02-01T17:49:56.651Z,5.70
2023-02-01T17:52:01.852Z,5.70
2023-02-01T17:54:07.623Z,5.80
2023-02-01T17:56:17.680Z,5.80
2023-02-01T17:58:25.999Z,5.80
2023-02-01T18:00:31.423Z,5.70
2023-02-01T18:02:36.392Z,5.70
2023-02-01T18:04:41.297Z,5.70
2023-02-01T18:06:46.289Z,5.70
2023-02-01T18:08:52.451Z,5.70
2023-02-01T18:11:02.535Z,5.70
2023-02-01T18:13:08.077Z,5.80
2023-02-01T18:15:22.476Z,5.80
2023-02-01T18:17:27.822Z,5.80
2023-02-01T18:19:32.943Z,5.90
2023-02-01T18:21:41.794Z,5.80
2023-02-01T18:23:47.964Z,5.80
2023-02-01T18:25:54.620Z,5.80
2023-02-01T18:28:02.353Z,5.80
2023-02-01T18:30:08.990Z,5.80
2023-02-01T18:32:16.530Z,5.90
2023-02-01T18:34:25.454Z,5.80
2023-02-01T18:36:31.413Z,5.80
2023-02-01T18:38:36.319Z,5.90
2023-02-01T18:40:49.375Z,5.90
2023-02-01T18:42:56.916Z,5.80
2023-02-01T18:45:02.190Z,5.70
2023-02-01T18:47:07.462Z,5.70
2023-02-01T18:49:18.118Z,5.70
2023-02-01T18:51:24.684Z,5.70
2023-02-01T18:53:29.858Z,5.60
2023-02-01T18:55:36.525Z,5.50
2023-02-01T18:57:42.103Z,5.40
2023-02-01T18:59:49.967Z,5.40
2023-02-01T19:01:54.927Z,5.30
2023-02-01T19:04:02.896Z,5.30
2023-02-01T19:06:20.171Z,5.30
2023-02-01T19:08:26.079Z,5.30
2023-02-01T19:10:31.489Z,5.30
2023-02-01T19:12:39.115Z,5.30
2023-02-01T19:14:44.268Z,5.30
2023-02-01T19:16:49.172Z,5.30
2023-02-01T19:18:54.830Z,5.40
2023-02-01T19:21:06.563Z,5.30
2023-02-01T19:23:15.061Z,5.40
2023-02-01T19:25:23.888Z,5.40
2023-02-01T19:27:29.723Z,5.30
2023-02-01T19:29:37.589Z,5.40
2023-02-01T19:31:44.588Z,5.40
2023-02-01T19:33:50.558Z,5.50
2023-02-01T19:36:01.203Z,5.50
2023-02-01T19:38:06.226Z,5.60
2023-02-01T19:40:18.044Z,5.50
2023-02-01T19:42:23.199Z,5.60
2023-02-01T19:44:29.944Z,5.50
2023-02-01T19:46:34.957Z,5.60
2023-02-01T19:48:40.358Z,5.60
2023-02-01T19:50:46.138Z,5.60
2023-02-01T19:52:51.688Z,5.60
2023-02-01T19:54:57.383Z,5.60
2023-02-01T19:57:04.913Z,5.60
2023-02-01T19:59:10.198Z,5.70
2023-02-01T20:01:15.772Z,5.70
2023-02-01T20:03:20.902Z,5.60
2023-02-01T20:05:26.173Z,5.50
2023-02-01T20:07:33.941Z,5.30
2023-02-01T20:09:41.100Z,5.10
2023-02-01T20:11:46.381Z,5.00
2023-02-01T20:13:54.965Z,4.90
2023-02-01T20:16:01.180Z,4.90
2023-02-01T20:18:06.819Z,5.00
2023-02-01T20:20:15.434Z,4.90
2023-02-01T20:22:20.555Z,5.00
2023-02-01T20:24:25.604Z,4.90
2023-02-01T20:26:31.780Z,4.90
2023-02-01T20:28:38.568Z,4.90
2023-02-01T20:30:47.319Z,5.00
2023-02-01T20:32:53.987Z,4.90
2023-02-01T20:34:59.570Z,4.90
2023-02-01T20:37:04.546Z,4.90
2023-02-01T20:39:10.587Z,4.90
2023-02-01T20:41:15.631Z,4.90
2023-02-01T20:43:20.643Z,4.80
2023-02-01T20:45:27.164Z,4.80
2023-02-01T20:47:36.249Z,4.80
2023-02-01T20:49:41.452Z,4.80
2023-02-01T20:51:46.399Z,4.70
2023-02-01T20:53:54.310Z,4.50
2023-02-01T20:56:01.555Z,4.40
2023-02-01T20:58:11.300Z,3.50
2023-02-01T21:00:18.638Z,2.60
2023-02-01T21:02:24.030Z,2.70
2023-02-01T21:04:32.974Z,2.60
2023-02-01T21:06:37.854Z,2.50
2023-02-01T21:08:42.962Z,2.30
2023-02-01T21:10:58.081Z,2.50
2023-02-01T21:13:05.371Z,2.50
2023-02-01T21:15:12.483Z,2.50
2023-02-01T21:17:17.601Z,2.60
2023-02-01T21:19:25.243Z,2.60
2023-02-01T21:21:33.892Z,2.60
2023-02-01T21:23:45.060Z,2.60
2023-02-01T21:25:50.478Z,2.60
2023-02-01T21:27:55.397Z,2.70
2023-02-01T21:30:00.279Z,2.70
2023-02-01T21:32:07.041Z,2.80
2023-02-01T21:34:12.729Z,2.80
2023-02-01T21:36:21.448Z,2.80
2023-02-01T21:38:29.377Z,2.90
2023-02-01T21:40:34.277Z,2.90
2023-02-01T21:42:37.981Z,2.90
2023-02-01T21:44:43.566Z,3.00
2023-02-01T21:46:48.995Z,2.80
2023-02-01T21:49:04.293Z,2.90
2023-02-01T21:51:11.329Z,2.90
2023-02-01T21:53:16.245Z,3.00
2023-02-01T21:55:24.103Z,3.00
2023-02-01T21:57:30.027Z,3.00
2023-02-01T21:59:36.111Z,3.10
2023-02-01T22:01:42.842Z,3.20
2023-02-01T22:03:49.176Z,3.00
2023-02-01T22:05:55.041Z,3.10
2023-02-01T22:08:00.026Z,3.20
2023-02-01T22:10:06.553Z,3.30
2023-02-01T22:12:16.575Z,3.20
2023-02-01T22:14:21.944Z,3.00
2023-02-01T22:16:27.080Z,3.00
2023-02-01T22:18:33.266Z,3.10
2023-02-01T22:20:40.054Z,3.20
2023-02-01T22:22:45.499Z,3.20
2023-02-01T22:24:50.379Z,3.30
2023-02-01T22:26:55.350Z,3.20
2023-02-01T22:29:23.749Z,3.10
2023-02-01T22:31:28.880Z,3.10
2023-02-01T22:33:34.244Z,3.10
2023-02-01T22:35:40.951Z,3.20
2023-02-01T22:37:48.850Z,3.20
2023-02-01T22:39:55.353Z,3.20
2023-02-01T22:42:00.570Z,3.20
2023-02-01T22:44:05.479Z,3.20
2023-02-01T22:46:19.105Z,3.30
2023-02-01T22:48:24.166Z,3.30
2023-02-01T22:50:29.177Z,3.30
2023-02-01T22:52:34.077Z,3.30
2023-02-01T22:54:40.438Z,3.30
2023-02-01T22:56:47.729Z,3.20
2023-02-01T22:58:58.224Z,3.20
2023-02-01T23:01:10.524Z,3.30
2023-02-01T23:03:18.039Z,3.30
2023-02-01T23:05:24.243Z,3.30
2023-02-01T23:09:37.980Z,3.20
2023-02-01T23:11:43.066Z,3.20
2023-02-01T23:13:48.112Z,3.20
2023-02-01T23:15:53.245Z,3.30
2023-02-01T23:17:58.194Z,3.20
2023-02-01T23:20:06.363Z,3.20
2023-02-01T23:22:11.267Z,3.20
2023-02-01T23:24:16.208Z,3.30
2023-02-01T23:26:22.334Z,3.20
2023-02-01T23:28:27.267Z,3.20
2023-02-01T23:30:32.251Z,3.30
2023-02-01T23:32:39.235Z,3.30
2023-02-01T23:34:44.115Z,3.30
2023-02-01T23:36:51.608Z,3.20
2023-02-01T23:38:57.489Z,3.20
2023-02-01T23:41:04.086Z,3.20
2023-02-01T23:43:21.473Z,3.10
2023-02-01T23:45:26.572Z,3.10
2023-02-01T23:47:31.596Z,3.10
2023-02-01T23:49:36.496Z,3.00
2023-02-01T23:51:41.921Z,3.00
2023-02-01T23:53:49.759Z,3.10
2023-02-01T23:55:56.174Z,3.00
2023-02-01T23:58:01.075Z,3.00
